Weather at Bujumbura Melchior Ndadaye International Airport

Public forecast

Using degrees Celsius for public forecast. Weather courtesy of forecast.io.

Current aviation weather report (METAR) for Bujumbura Melchior Ndadaye International Airport

Report is more than 6 hours old.

2024/05/27 18:00 (retrieved 10 hours ago)

HBBA 271800Z 00000KT 9999 FEW025 27/20 Q1016

Closest aviation forecast (TAF) to Bujumbura Melchior Ndadaye International Airport

Forecast is more than 12 hours old.

Closest forecast is Kamembe Airport, 57.3 nm (106.1 km) NNW.

2024/05/27 12:00 (retrieved 16 hours ago)

TAF HRZA 271100Z 2712/2818 16006KT 9999 FEW023CB SCT025 TEMPO 2714/2718 25008KT TS BECMG 2723/2801 31005KT 9000 SCT026 BECMG 2806/2808 12004KT 9999 FEW026 SCT100 TEMPO 2812/2817 18010KT TS FEW023CB SCT025